Time;durP1;ratioP1;P1;durP2;ratioP2;P2;SDS_P1;SDS_P2;PMS_P1;PMS_P2;Temp;Humidity;BMP_temperature;BMP_pressure;BME280_temperature;BME280_humidity;BME280_pressure;Samples;Min_cycle;Max_cycle;Signal;HPM_P1;HPM_P2
2022/02/23 00:02:06;;;;;;;6.30;1.60;;;;;;;;;;5071985;28;20049;-63
2022/02/23 00:04:33;;;;;;;7.15;1.50;;;;;;;;;;5071708;28;20132;-63
2022/02/23 00:07:02;;;;;;;9.80;1.70;;;;;;;;;;5071293;28;20052;-63
2022/02/23 00:09:29;;;;;;;7.63;1.77;;;;;;;;;;5071386;28;20052;-63
2022/02/23 00:11:55;;;;;;;7.45;1.65;;;;;;;;;;5071486;28;20045;-63
2022/02/23 00:14:22;;;;;;;3.75;1.33;;;;;;;;;;5071496;28;20426;-63
2022/02/23 00:16:49;;;;;;;7.40;1.60;;;;;;;;;;5071195;28;20485;-61
2022/02/23 00:19:16;;;;;;;4.63;1.40;;;;;;;;;;5071516;28;20052;-63
2022/02/23 00:21:43;;;;;;;3.72;1.38;;;;;;;;;;5071318;28;20041;-63
2022/02/23 00:24:12;;;;;;;5.18;1.50;;;;;;;;;;5071799;28;20132;-63
2022/02/23 00:26:39;;;;;;;5.28;1.52;;;;;;;;;;5075178;28;20127;-63
2022/02/23 00:29:06;;;;;;;5.15;1.58;;;;;;;;;;5075296;28;20494;-62
2022/02/23 00:31:33;;;;;;;4.70;1.40;;;;;;;;;;5075133;28;20138;-62
2022/02/23 00:34:00;;;;;;;4.85;1.40;;;;;;;;;;5075092;28;20044;-62
2022/02/23 00:36:27;;;;;;;6.22;1.65;;;;;;;;;;5074477;28;20067;-63
2022/02/23 00:38:54;;;;;;;5.95;2.00;;;;;;;;;;5075167;28;20482;-63
2022/02/23 00:41:22;;;;;;;5.00;1.55;;;;;;;;;;5074853;28;20140;-63
2022/02/23 00:43:49;;;;;;;5.70;1.73;;;;;;;;;;5075079;28;20558;-63
2022/02/23 00:46:16;;;;;;;5.60;2.05;;;;;;;;;;5074834;28;20059;-63
2022/02/23 00:48:44;;;;;;;3.35;1.33;;;;;;;;;;5074400;28;20428;-63
2022/02/23 00:51:11;;;;;;;4.53;1.48;;;;;;;;;;5075024;28;20470;-63
2022/02/23 00:53:38;;;;;;;5.22;1.50;;;;;;;;;;5074763;28;20058;-63
2022/02/23 00:56:05;;;;;;;5.30;1.50;;;;;;;;;;5074531;28;20051;-63
2022/02/23 00:58:33;;;;;;;6.05;1.95;;;;;;;;;;5074474;28;20536;-63
2022/02/23 01:01:00;;;;;;;4.95;1.42;;;;;;;;;;5074526;28;20051;-63
2022/02/23 01:03:27;;;;;;;5.63;1.58;;;;;;;;;;5074521;28;20051;-63
2022/02/23 01:05:55;;;;;;;5.30;1.52;;;;;;;;;;5074731;28;20051;-63
2022/02/23 01:08:21;;;;;;;4.10;1.23;;;;;;;;;;5074115;28;20417;-63
2022/02/23 01:10:48;;;;;;;4.22;1.20;;;;;;;;;;5074362;28;20049;-62
2022/02/23 01:13:16;;;;;;;4.22;1.20;;;;;;;;;;5074288;28;20045;-63
2022/02/23 01:15:44;;;;;;;4.05;1.40;;;;;;;;;;5074161;28;20062;-63
2022/02/23 01:18:11;;;;;;;6.22;1.88;;;;;;;;;;5073890;28;20044;-63
2022/02/23 01:20:38;;;;;;;5.47;1.77;;;;;;;;;;5074213;28;20421;-63
2022/02/23 01:23:05;;;;;;;6.70;1.70;;;;;;;;;;5074135;28;20051;-63
2022/02/23 01:25:32;;;;;;;4.20;1.30;;;;;;;;;;5073936;28;20045;-64
2022/02/23 01:28:01;;;;;;;4.63;1.02;;;;;;;;;;5073613;28;20148;-63
2022/02/23 01:30:28;;;;;;;2.92;1.30;;;;;;;;;;5074050;28;20084;-61
2022/02/23 01:32:56;;;;;;;3.00;1.27;;;;;;;;;;5073932;28;20412;-61
2022/02/23 01:35:24;;;;;;;5.07;1.73;;;;;;;;;;5073651;28;20058;-63
2022/02/23 01:37:52;;;;;;;4.72;1.35;;;;;;;;;;5072596;28;20057;-63
2022/02/23 01:40:20;;;;;;;3.38;1.10;;;;;;;;;;5073609;28;20075;-63
2022/02/23 01:42:48;;;;;;;6.53;1.63;;;;;;;;;;5073609;28;20055;-63
2022/02/23 01:45:15;;;;;;;2.70;1.10;;;;;;;;;;5073622;28;20040;-63
2022/02/23 01:47:42;;;;;;;3.88;1.20;;;;;;;;;;5073368;28;20048;-63
2022/02/23 01:50:11;;;;;;;5.93;1.48;;;;;;;;;;5073543;28;20074;-63
2022/02/23 01:52:38;;;;;;;5.13;1.33;;;;;;;;;;5073492;28;20044;-63
2022/02/23 01:55:06;;;;;;;3.63;1.27;;;;;;;;;;5073373;28;20509;-63
2022/02/23 01:57:34;;;;;;;6.43;1.80;;;;;;;;;;5072834;28;20051;-62
2022/02/23 02:00:01;;;;;;;4.88;1.50;;;;;;;;;;5073339;28;20383;-63
2022/02/23 02:02:29;;;;;;;3.40;1.20;;;;;;;;;;5073370;28;20055;-63
2022/02/23 02:04:56;;;;;;;5.85;1.58;;;;;;;;;;5073318;28;20555;-63
2022/02/23 02:07:24;;;;;;;3.10;1.20;;;;;;;;;;5072916;28;20516;-63
2022/02/23 02:09:52;;;;;;;4.07;1.13;;;;;;;;;;5072952;28;20044;-63
2022/02/23 02:12:19;;;;;;;5.68;1.20;;;;;;;;;;5073014;28;20131;-63
2022/02/23 02:14:46;;;;;;;5.03;1.67;;;;;;;;;;5072854;28;20083;-64
2022/02/23 02:17:13;;;;;;;4.50;1.63;;;;;;;;;;5073016;28;20048;-63
2022/02/23 02:19:40;;;;;;;4.55;1.38;;;;;;;;;;5072786;28;20050;-63
2022/02/23 02:22:09;;;;;;;3.10;1.02;;;;;;;;;;5072791;28;20040;-63
2022/02/23 02:24:39;;;;;;;5.35;1.50;;;;;;;;;;5072664;28;20448;-63
2022/02/23 02:27:09;;;;;;;4.28;1.33;;;;;;;;;;5072542;28;20048;-62
2022/02/23 02:29:36;;;;;;;2.70;1.27;;;;;;;;;;5072673;28;20040;-62
2022/02/23 02:32:04;;;;;;;4.15;1.25;;;;;;;;;;5072777;28;20135;-64
2022/02/23 02:34:31;;;;;;;2.72;1.10;;;;;;;;;;5072824;28;20047;-62
2022/02/23 02:36:59;;;;;;;3.15;1.30;;;;;;;;;;5072264;28;20044;-64
2022/02/23 02:39:27;;;;;;;4.80;1.20;;;;;;;;;;5073032;28;20048;-63
2022/02/23 02:41:54;;;;;;;3.42;1.08;;;;;;;;;;5072507;28;20048;-64
2022/02/23 02:44:21;;;;;;;3.15;1.10;;;;;;;;;;5072539;28;20060;-63
2022/02/23 02:46:49;;;;;;;4.22;1.15;;;;;;;;;;5072385;28;20437;-64
2022/02/23 02:49:16;;;;;;;4.15;1.00;;;;;;;;;;5071544;28;20446;-64
2022/02/23 02:51:43;;;;;;;4.72;1.00;;;;;;;;;;5072376;28;20127;-63
2022/02/23 02:54:10;;;;;;;3.60;0.90;;;;;;;;;;5072449;28;20070;-64
2022/02/23 02:56:39;;;;;;;2.78;1.10;;;;;;;;;;5072164;28;20051;-64
2022/02/23 02:59:07;;;;;;;3.47;1.08;;;;;;;;;;5072373;28;20133;-63
2022/02/23 03:01:34;;;;;;;2.67;0.85;;;;;;;;;;5072410;28;20091;-64
2022/02/23 03:04:02;;;;;;;8.73;1.45;;;;;;;;;;5071992;28;20090;-62
2022/02/23 03:06:29;;;;;;;3.83;1.27;;;;;;;;;;5071866;28;20135;-65
2022/02/23 03:08:56;;;;;;;2.40;0.95;;;;;;;;;;5072020;28;20056;-65
2022/02/23 03:11:25;;;;;;;3.97;0.95;;;;;;;;;;5071901;28;20059;-63
2022/02/23 03:13:53;;;;;;;6.22;1.67;;;;;;;;;;5071798;28;20044;-65
2022/02/23 03:16:21;;;;;;;4.63;1.08;;;;;;;;;;5071877;28;20056;-65
2022/02/23 03:18:49;;;;;;;2.25;1.00;;;;;;;;;;5071757;28;20086;-63
2022/02/23 03:21:15;;;;;;;2.92;1.17;;;;;;;;;;5071956;28;20045;-63
2022/02/23 03:23:43;;;;;;;2.97;0.95;;;;;;;;;;5072021;28;20052;-63
2022/02/23 03:26:10;;;;;;;2.95;0.80;;;;;;;;;;5071789;28;20048;-64
2022/02/23 03:28:38;;;;;;;4.03;0.82;;;;;;;;;;5071399;28;20044;-63
2022/02/23 03:31:07;;;;;;;3.90;1.20;;;;;;;;;;5071621;28;20088;-64
2022/02/23 03:33:34;;;;;;;2.90;1.02;;;;;;;;;;5071646;28;20044;-63
2022/02/23 03:36:02;;;;;;;3.22;1.15;;;;;;;;;;5071780;28;20052;-64
2022/02/23 03:38:29;;;;;;;5.93;1.00;;;;;;;;;;5071425;28;20056;-63
2022/02/23 03:40:57;;;;;;;2.78;1.10;;;;;;;;;;5071668;28;20058;-63
2022/02/23 03:43:24;;;;;;;4.30;1.00;;;;;;;;;;5071591;28;20048;-64
2022/02/23 03:45:51;;;;;;;1.55;0.85;;;;;;;;;;5071628;28;20044;-63
2022/02/23 03:48:19;;;;;;;2.67;1.10;;;;;;;;;;5071289;28;20127;-62
2022/02/23 03:50:46;;;;;;;2.38;0.90;;;;;;;;;;5071656;28;20045;-63
2022/02/23 03:53:13;;;;;;;3.25;0.95;;;;;;;;;;5071570;28;20063;-63
2022/02/23 03:55:41;;;;;;;4.25;1.00;;;;;;;;;;5071555;28;20474;-64
2022/02/23 03:58:08;;;;;;;3.17;0.93;;;;;;;;;;5071169;28;20086;-64
2022/02/23 04:00:36;;;;;;;2.85;0.85;;;;;;;;;;5076541;28;20058;-63
2022/02/23 04:03:03;;;;;;;3.42;0.80;;;;;;;;;;5078046;28;20124;-63
2022/02/23 04:05:31;;;;;;;3.28;1.10;;;;;;;;;;5078207;28;20045;-63
2022/02/23 04:07:58;;;;;;;1.92;0.60;;;;;;;;;;5077984;28;20044;-65
2022/02/23 04:10:25;;;;;;;2.97;1.00;;;;;;;;;;5078186;28;20048;-63
2022/02/23 04:12:52;;;;;;;3.35;0.90;;;;;;;;;;5078105;28;20391;-64
2022/02/23 04:15:19;;;;;;;3.55;0.70;;;;;;;;;;5078484;28;20136;-63
2022/02/23 04:17:46;;;;;;;2.00;0.82;;;;;;;;;;5077804;28;20055;-63
2022/02/23 04:20:13;;;;;;;3.00;0.77;;;;;;;;;;5078073;28;20041;-63
2022/02/23 04:22:43;;;;;;;1.88;0.70;;;;;;;;;;5078046;28;20053;-64
2022/02/23 04:25:11;;;;;;;2.97;1.00;;;;;;;;;;5078089;28;20692;-63
2022/02/23 04:27:38;;;;;;;1.55;0.60;;;;;;;;;;5077651;28;20052;-62
2022/02/23 04:30:07;;;;;;;1.20;0.68;;;;;;;;;;5077917;28;20044;-63
2022/02/23 04:32:36;;;;;;;3.65;0.70;;;;;;;;;;5078017;28;20056;-63
2022/02/23 04:35:04;;;;;;;4.28;1.20;;;;;;;;;;5078075;28;20045;-63
2022/02/23 04:37:31;;;;;;;3.72;0.82;;;;;;;;;;5077726;28;20504;-64
2022/02/23 04:40:00;;;;;;;2.00;0.80;;;;;;;;;;5077915;28;20056;-63
2022/02/23 04:42:27;;;;;;;2.40;0.70;;;;;;;;;;5078096;28;20414;-63
2022/02/23 04:45:00;;;;;;;3.78;0.70;;;;;;;;;;5078076;28;20040;-63
2022/02/23 04:47:28;;;;;;;3.50;0.82;;;;;;;;;;5077631;28;20071;-64
2022/02/23 04:49:55;;;;;;;6.53;0.88;;;;;;;;;;5077716;28;20066;-64
2022/02/23 04:52:24;;;;;;;5.40;1.05;;;;;;;;;;5077844;28;20055;-64
2022/02/23 04:54:52;;;;;;;3.42;1.10;;;;;;;;;;5078018;28;20048;-62
2022/02/23 04:57:20;;;;;;;4.38;1.02;;;;;;;;;;5077564;28;20048;-63
2022/02/23 04:59:47;;;;;;;7.85;1.67;;;;;;;;;;5077698;28;20058;-64
2022/02/23 05:02:14;;;;;;;3.22;0.93;;;;;;;;;;5077902;28;20132;-63
2022/02/23 05:04:41;;;;;;;2.08;0.88;;;;;;;;;;5077617;28;20049;-63
2022/02/23 05:07:09;;;;;;;2.75;1.20;;;;;;;;;;5077980;28;20048;-62
2022/02/23 05:09:37;;;;;;;2.80;0.82;;;;;;;;;;5077639;28;20053;-64
2022/02/23 05:12:06;;;;;;;4.35;1.15;;;;;;;;;;5074273;28;20308;-63
2022/02/23 05:14:35;;;;;;;2.47;0.80;;;;;;;;;;5074818;28;20055;-64
2022/02/23 05:17:03;;;;;;;3.70;1.73;;;;;;;;;;5074478;28;20332;-64
2022/02/23 05:19:31;;;;;;;1.63;0.63;;;;;;;;;;5075273;28;20053;-63
2022/02/23 05:21:59;;;;;;;4.15;1.40;;;;;;;;;;5075001;28;20504;-62
2022/02/23 05:24:28;;;;;;;3.53;1.02;;;;;;;;;;5074217;28;20044;-62
2022/02/23 05:26:55;;;;;;;2.63;1.30;;;;;;;;;;5074259;28;20048;-64
2022/02/23 05:29:22;;;;;;;3.50;1.00;;;;;;;;;;5073893;28;20048;-63
2022/02/23 05:31:51;;;;;;;3.70;0.95;;;;;;;;;;5074254;28;20044;-64
2022/02/23 05:34:18;;;;;;;3.50;1.02;;;;;;;;;;5073995;28;20048;-62
2022/02/23 05:36:45;;;;;;;2.08;1.02;;;;;;;;;;5074094;28;20569;-64
2022/02/23 05:39:13;;;;;;;2.17;0.80;;;;;;;;;;5073980;28;20080;-64
2022/02/23 05:41:40;;;;;;;2.65;1.00;;;;;;;;;;5074141;28;20046;-64
2022/02/23 05:44:07;;;;;;;2.50;0.80;;;;;;;;;;5074003;28;20052;-63
2022/02/23 05:46:34;;;;;;;3.97;0.90;;;;;;;;;;5073805;28;20044;-64
2022/02/23 05:49:03;;;;;;;3.10;1.08;;;;;;;;;;5074117;28;20481;-65
2022/02/23 05:51:32;;;;;;;4.28;1.00;;;;;;;;;;5074265;28;20050;-64
2022/02/23 05:53:59;;;;;;;2.83;1.00;;;;;;;;;;5073749;28;20052;-65
2022/02/23 05:56:26;;;;;;;3.30;1.33;;;;;;;;;;5073517;28;20576;-65
2022/02/23 05:58:54;;;;;;;4.38;0.90;;;;;;;;;;5073645;28;20051;-63
2022/02/23 06:01:21;;;;;;;1.90;0.85;;;;;;;;;;5073445;28;20478;-63
2022/02/23 06:03:48;;;;;;;2.97;0.90;;;;;;;;;;5073547;28;20048;-65
2022/02/23 06:06:17;;;;;;;4.60;0.93;;;;;;;;;;5073910;28;20519;-64
2022/02/23 06:08:44;;;;;;;4.18;1.10;;;;;;;;;;5073589;28;20091;-64
2022/02/23 06:11:13;;;;;;;3.90;1.40;;;;;;;;;;5073643;28;20395;-63
2022/02/23 06:13:40;;;;;;;4.50;1.05;;;;;;;;;;5073916;28;20048;-64
2022/02/23 06:16:08;;;;;;;3.33;0.90;;;;;;;;;;5073586;28;20382;-63
2022/02/23 06:18:35;;;;;;;2.67;0.80;;;;;;;;;;5073715;28;20040;-63
2022/02/23 06:21:02;;;;;;;3.42;1.13;;;;;;;;;;5074532;28;20485;-63
2022/02/23 06:23:30;;;;;;;4.68;1.10;;;;;;;;;;5073289;28;20045;-64
2022/02/23 06:25:57;;;;;;;4.38;0.90;;;;;;;;;;5073438;28;20052;-62
2022/02/23 06:28:24;;;;;;;5.18;1.60;;;;;;;;;;5073427;28;20071;-64
2022/02/23 06:30:51;;;;;;;4.10;1.23;;;;;;;;;;5073062;28;20101;-64
2022/02/23 06:33:22;;;;;;;4.03;1.10;;;;;;;;;;5073500;28;20132;-63
2022/02/23 06:35:50;;;;;;;6.22;1.05;;;;;;;;;;5072988;28;20135;-64
2022/02/23 06:38:17;;;;;;;4.03;1.10;;;;;;;;;;5072798;28;20062;-65
2022/02/23 06:40:46;;;;;;;5.03;1.60;;;;;;;;;;5072725;28;20508;-64
2022/02/23 06:43:15;;;;;;;4.97;1.10;;;;;;;;;;5073264;28;20404;-65
2022/02/23 06:45:42;;;;;;;4.72;1.35;;;;;;;;;;5072719;28;20048;-64
2022/02/23 06:48:09;;;;;;;6.55;1.35;;;;;;;;;;5072817;28;20074;-63
2022/02/23 06:50:36;;;;;;;3.53;0.93;;;;;;;;;;5072714;28;20044;-64
2022/02/23 06:53:03;;;;;;;3.75;0.88;;;;;;;;;;5073207;28;20131;-63
2022/02/23 06:55:30;;;;;;;3.42;1.35;;;;;;;;;;5072600;28;20066;-63
2022/02/23 06:57:58;;;;;;;3.50;1.10;;;;;;;;;;5072717;28;20052;-64
2022/02/23 07:00:27;;;;;;;2.55;0.93;;;;;;;;;;5072482;28;20052;-64
2022/02/23 07:02:55;;;;;;;5.40;1.20;;;;;;;;;;5072411;28;20052;-64
2022/02/23 07:05:22;;;;;;;5.75;1.30;;;;;;;;;;5072186;28;20131;-63
2022/02/23 07:07:49;;;;;;;5.65;1.42;;;;;;;;;;5072657;28;20516;-64
2022/02/23 07:10:25;;;;;;;7.20;1.40;;;;;;;;;;5072086;28;20044;-65
2022/02/23 07:12:53;;;;;;;3.97;1.10;;;;;;;;;;5072216;28;20048;-64
2022/02/23 07:15:24;;;;;;;3.15;0.90;;;;;;;;;;5072397;28;20056;-63
2022/02/23 07:17:51;;;;;;;4.32;1.15;;;;;;;;;;5071925;28;20055;-65
2022/02/23 07:20:19;;;;;;;6.75;1.20;;;;;;;;;;5072129;28;20460;-65
2022/02/23 07:22:46;;;;;;;6.57;1.33;;;;;;;;;;5072073;28;20079;-64
2022/02/23 07:25:14;;;;;;;3.28;1.27;;;;;;;;;;5071815;28;20123;-64
2022/02/23 07:27:42;;;;;;;3.38;1.20;;;;;;;;;;5072065;28;20052;-64
2022/02/23 07:30:11;;;;;;;5.65;1.40;;;;;;;;;;5071924;28;20387;-64
2022/02/23 07:32:40;;;;;;;4.50;1.30;;;;;;;;;;5071909;28;20052;-64
2022/02/23 07:35:10;;;;;;;5.50;1.30;;;;;;;;;;5071390;28;20045;-65
2022/02/23 07:37:38;;;;;;;4.97;1.90;;;;;;;;;;5071632;28;20052;-64
2022/02/23 07:40:09;;;;;;;3.22;1.23;;;;;;;;;;5071657;28;20094;-64
2022/02/23 07:42:36;;;;;;;6.53;1.30;;;;;;;;;;5071630;28;20048;-63
2022/02/23 07:45:04;;;;;;;4.30;1.10;;;;;;;;;;5071679;28;20052;-64
2022/02/23 07:47:31;;;;;;;6.25;1.98;;;;;;;;;;5071478;28;20055;-64
2022/02/23 07:50:00;;;;;;;5.93;1.48;;;;;;;;;;5071647;28;20052;-64
2022/02/23 07:52:32;;;;;;;5.65;1.70;;;;;;;;;;5075019;28;20080;-65
2022/02/23 07:54:59;;;;;;;5.22;1.45;;;;;;;;;;5071582;28;20044;-62
2022/02/23 07:57:26;;;;;;;8.50;1.67;;;;;;;;;;5071357;28;20131;-64
2022/02/23 07:59:53;;;;;;;4.15;1.45;;;;;;;;;;5071379;28;20490;-63
2022/02/23 08:02:21;;;;;;;6.15;1.45;;;;;;;;;;5071682;28;20417;-64
2022/02/23 08:04:52;;;;;;;4.85;1.23;;;;;;;;;;5068112;28;20052;-63
2022/02/23 08:07:21;;;;;;;10.00;1.92;;;;;;;;;;5069470;28;20055;-62
2022/02/23 08:09:49;;;;;;;3.97;1.30;;;;;;;;;;5069613;28;20052;-62
2022/02/23 08:12:16;;;;;;;4.78;1.55;;;;;;;;;;5070722;28;20049;-62
2022/02/23 08:14:43;;;;;;;3.92;1.55;;;;;;;;;;5069237;28;20051;-63
2022/02/23 08:19:54;;;;;;;4.45;1.30;;;;;;;;;;5069531;28;20052;-61
2022/02/23 08:22:28;;;;;;;5.43;1.45;;;;;;;;;;5070570;28;20050;-65
2022/02/23 08:24:56;;;;;;;7.00;1.95;;;;;;;;;;5069494;28;20052;-63
2022/02/23 08:27:24;;;;;;;6.85;1.90;;;;;;;;;;5069569;28;20569;-63
2022/02/23 08:29:53;;;;;;;6.35;2.03;;;;;;;;;;5069226;28;20265;-65
2022/02/23 08:32:22;;;;;;;6.38;1.42;;;;;;;;;;5069592;28;20418;-63
2022/02/23 08:34:51;;;;;;;6.18;1.52;;;;;;;;;;5069107;28;20198;-62
2022/02/23 08:37:19;;;;;;;6.72;1.90;;;;;;;;;;5069278;28;20505;-64
2022/02/23 08:39:48;;;;;;;3.80;1.20;;;;;;;;;;5069417;28;20413;-63
2022/02/23 08:42:17;;;;;;;5.35;1.75;;;;;;;;;;5069250;28;20129;-63
2022/02/23 08:44:44;;;;;;;7.20;2.05;;;;;;;;;;5069024;28;20045;-63
2022/02/23 08:47:12;;;;;;;7.43;2.22;;;;;;;;;;5071229;28;20119;-63
2022/02/23 08:49:39;;;;;;;7.97;1.40;;;;;;;;;;5072860;28;20122;-63
2022/02/23 08:52:07;;;;;;;5.35;1.20;;;;;;;;;;5072662;28;20049;-62
2022/02/23 08:54:34;;;;;;;4.32;1.20;;;;;;;;;;5073080;28;20051;-63
2022/02/23 08:57:04;;;;;;;7.30;2.53;;;;;;;;;;5072321;28;20106;-63
2022/02/23 08:59:31;;;;;;;6.90;1.85;;;;;;;;;;5072614;28;20053;-64
2022/02/23 09:01:58;;;;;;;3.95;1.00;;;;;;;;;;5073080;28;20052;-64
2022/02/23 09:04:25;;;;;;;3.75;0.98;;;;;;;;;;5072856;28;20465;-64
2022/02/23 09:06:52;;;;;;;4.32;1.40;;;;;;;;;;5072483;28;20123;-63
2022/02/23 09:09:19;;;;;;;11.95;3.28;;;;;;;;;;5072529;28;20139;-64
2022/02/23 09:11:47;;;;;;;4.53;1.27;;;;;;;;;;5072279;28;20131;-63
2022/02/23 09:14:16;;;;;;;4.25;1.30;;;;;;;;;;5072522;28;20102;-64
2022/02/23 09:16:44;;;;;;;6.28;1.95;;;;;;;;;;5072287;28;20147;-63
2022/02/23 09:19:11;;;;;;;4.55;1.85;;;;;;;;;;5072168;28;20044;-63
2022/02/23 09:21:38;;;;;;;6.13;1.83;;;;;;;;;;5072467;28;20079;-63
2022/02/23 09:24:06;;;;;;;7.65;2.08;;;;;;;;;;5072671;28;20095;-63
2022/02/23 09:26:33;;;;;;;4.60;1.90;;;;;;;;;;5072345;28;20066;-61
2022/02/23 09:29:02;;;;;;;8.45;3.03;;;;;;;;;;5072014;28;20509;-64
2022/02/23 09:31:31;;;;;;;7.15;2.08;;;;;;;;;;5072075;28;20078;-64
2022/02/23 09:33:58;;;;;;;5.43;2.38;;;;;;;;;;5072449;28;20581;-63
2022/02/23 09:36:25;;;;;;;5.35;1.88;;;;;;;;;;5072058;28;20058;-64
2022/02/23 09:38:52;;;;;;;9.80;2.10;;;;;;;;;;5071866;28;20135;-63
2022/02/23 09:41:21;;;;;;;8.35;2.00;;;;;;;;;;5071228;28;20048;-64
2022/02/23 09:43:52;;;;;;;5.93;1.75;;;;;;;;;;5071666;28;20049;-63
2022/02/23 09:46:21;;;;;;;11.23;3.60;;;;;;;;;;5072007;28;20080;-67
2022/02/23 09:48:50;;;;;;;4.80;1.40;;;;;;;;;;5072020;28;20551;-67
2022/02/23 09:51:17;;;;;;;10.43;2.13;;;;;;;;;;5072280;28;20068;-68
2022/02/23 09:53:46;;;;;;;5.97;1.40;;;;;;;;;;5072168;28;20049;-63
2022/02/23 09:56:14;;;;;;;5.97;1.58;;;;;;;;;;5071664;28;20055;-65
2022/02/23 09:58:42;;;;;;;7.43;2.53;;;;;;;;;;5070834;28;20555;-63
2022/02/23 10:01:09;;;;;;;9.30;2.13;;;;;;;;;;5071668;28;20409;-63
2022/02/23 10:03:38;;;;;;;5.85;1.75;;;;;;;;;;5071481;28;20066;-63
2022/02/23 10:06:06;;;;;;;4.32;1.48;;;;;;;;;;5071313;28;20055;-65
2022/02/23 10:08:37;;;;;;;4.28;1.80;;;;;;;;;;5071216;28;20122;-64
2022/02/23 10:11:05;;;;;;;7.63;2.00;;;;;;;;;;5071714;28;20387;-63
2022/02/23 10:13:32;;;;;;;6.40;1.50;;;;;;;;;;5071482;28;20209;-64
2022/02/23 10:15:59;;;;;;;6.20;1.73;;;;;;;;;;5071647;28;20123;-63
2022/02/23 10:18:28;;;;;;;4.78;1.50;;;;;;;;;;5071190;28;20083;-64
2022/02/23 10:20:56;;;;;;;5.45;1.63;;;;;;;;;;5071706;28;20048;-63
2022/02/23 10:23:28;;;;;;;4.38;1.73;;;;;;;;;;5071531;28;20421;-63
2022/02/23 10:25:58;;;;;;;7.03;1.88;;;;;;;;;;5071598;28;20049;-63
2022/02/23 10:28:28;;;;;;;8.48;2.47;;;;;;;;;;5071755;28;20157;-65
2022/02/23 10:30:57;;;;;;;3.92;1.75;;;;;;;;;;5072115;28;20054;-63
2022/02/23 10:33:26;;;;;;;4.93;1.90;;;;;;;;;;5070914;28;20059;-63
2022/02/23 10:35:55;;;;;;;5.53;1.90;;;;;;;;;;5071106;28;20135;-63
2022/02/23 10:38:25;;;;;;;6.90;1.85;;;;;;;;;;5070450;28;20490;-64
2022/02/23 10:40:54;;;;;;;10.45;1.83;;;;;;;;;;5070624;28;20045;-65
2022/02/23 10:43:23;;;;;;;7.63;2.22;;;;;;;;;;5068453;28;20554;-64
2022/02/23 10:45:51;;;;;;;6.30;2.00;;;;;;;;;;5070579;28;20044;-64
2022/02/23 10:48:30;;;;;;;6.57;2.80;;;;;;;;;;5070891;28;20151;-63
2022/02/23 10:50:57;;;;;;;8.88;3.40;;;;;;;;;;5070406;28;20106;-63
2022/02/23 10:53:30;;;;;;;12.07;3.65;;;;;;;;;;5070922;28;20052;-63
2022/02/23 10:55:58;;;;;;;7.35;1.73;;;;;;;;;;5070569;28;20058;-61
2022/02/23 10:58:26;;;;;;;5.75;1.55;;;;;;;;;;5069632;28;20148;-62
2022/02/23 11:00:56;;;;;;;4.97;1.70;;;;;;;;;;5069951;28;20049;-64
2022/02/23 11:03:23;;;;;;;4.38;1.60;;;;;;;;;;5069912;28;20048;-63
2022/02/23 11:05:52;;;;;;;7.38;1.90;;;;;;;;;;5070300;28;20041;-64
2022/02/23 11:08:21;;;;;;;6.07;1.90;;;;;;;;;;5069831;28;20052;-63
2022/02/23 11:10:50;;;;;;;4.50;1.75;;;;;;;;;;5069886;28;20520;-62
2022/02/23 11:13:19;;;;;;;3.63;1.30;;;;;;;;;;5070167;28;20048;-64
2022/02/23 11:15:49;;;;;;;5.53;1.45;;;;;;;;;;5070586;28;20139;-64
2022/02/23 11:18:19;;;;;;;4.53;2.10;;;;;;;;;;5070084;28;20409;-65
2022/02/23 11:20:49;;;;;;;6.65;1.77;;;;;;;;;;5070188;28;20798;-64
2022/02/23 11:23:18;;;;;;;6.43;2.23;;;;;;;;;;5070263;28;20060;-64
2022/02/23 11:25:48;;;;;;;4.40;1.90;;;;;;;;;;5070094;28;20048;-63
2022/02/23 11:28:22;;;;;;;8.40;3.70;;;;;;;;;;5069557;28;20482;-63
2022/02/23 11:30:52;;;;;;;6.95;1.88;;;;;;;;;;5070388;28;20494;-63
2022/02/23 11:33:54;;;;;;;6.55;1.98;;;;;;;;;;5070804;28;20550;-64
2022/02/23 11:36:22;;;;;;;4.32;1.70;;;;;;;;;;5059194;28;20056;-63
2022/02/23 11:38:51;;;;;;;8.60;2.40;;;;;;;;;;5069511;28;20044;-64
2022/02/23 11:41:25;;;;;;;7.50;2.88;;;;;;;;;;5070321;28;20450;-65
2022/02/23 11:44:02;;;;;;;6.40;1.77;;;;;;;;;;5070329;28;20404;-64
2022/02/23 11:46:30;;;;;;;7.97;1.60;;;;;;;;;;5069753;28;20055;-63
2022/02/23 11:48:57;;;;;;;6.28;1.85;;;;;;;;;;5069873;28;20140;-64
2022/02/23 11:51:30;;;;;;;4.18;1.50;;;;;;;;;;5070187;28;20143;-61
2022/02/23 11:53:57;;;;;;;4.25;1.70;;;;;;;;;;5069895;28;20044;-64
2022/02/23 11:56:24;;;;;;;5.97;1.45;;;;;;;;;;5070039;28;20097;-62
2022/02/23 11:58:53;;;;;;;6.57;1.80;;;;;;;;;;5069820;28;20417;-64
2022/02/23 12:01:22;;;;;;;4.50;1.50;;;;;;;;;;5070124;28;20050;-63
2022/02/23 12:04:12;;;;;;;4.90;1.60;;;;;;;;;;5070286;28;20472;-64
2022/02/23 12:07:08;;;;;;;5.90;1.60;;;;;;;;;;5069870;28;20048;-64
2022/02/23 12:10:06;;;;;;;5.75;1.48;;;;;;;;;;5069825;28;20060;-66
2022/02/23 12:12:33;;;;;;;5.35;1.88;;;;;;;;;;5069663;28;20055;-63
2022/02/23 12:15:03;;;;;;;6.68;1.95;;;;;;;;;;5069998;28;20052;-64
2022/02/23 12:17:52;;;;;;;3.27;1.40;;;;;;;;;;5069972;28;20056;-63
2022/02/23 12:20:51;;;;;;;5.85;1.70;;;;;;;;;;5070118;28;20048;-63
2022/02/23 12:23:37;;;;;;;6.70;1.80;;;;;;;;;;5073620;28;20049;-64
2022/02/23 12:26:19;;;;;;;6.82;1.65;;;;;;;;;;5073781;28;20048;-65
2022/02/23 12:28:48;;;;;;;5.53;1.60;;;;;;;;;;5073511;28;20094;-66
2022/02/23 12:31:18;;;;;;;3.83;1.50;;;;;;;;;;5073536;28;20053;-64
2022/02/23 12:33:48;;;;;;;4.28;1.50;;;;;;;;;;5073399;28;20052;-63
2022/02/23 12:36:23;;;;;;;7.43;2.10;;;;;;;;;;5073296;28;20417;-64
2022/02/23 12:38:51;;;;;;;7.47;2.78;;;;;;;;;;5074094;28;20137;-66
2022/02/23 12:41:21;;;;;;;7.40;1.98;;;;;;;;;;5073208;28;20444;-64
2022/02/23 12:43:59;;;;;;;;;;;;;;;;;;5073646;28;20045;-64
2022/02/23 12:46:26;;;;;;;3.75;1.75;;;;;;;;;;5073335;28;19926;-63
2022/02/23 12:48:57;;;;;;;4.82;1.58;;;;;;;;;;5072858;28;20087;-65
2022/02/23 12:51:25;;;;;;;;;;;;;;;;;;5073587;28;20048;-64
2022/02/23 12:53:57;;;;;;;5.45;1.30;;;;;;;;;;5073312;28;19971;-64
2022/02/23 12:56:27;;;;;;;5.03;1.65;;;;;;;;;;5072852;28;20131;-63
2022/02/23 12:58:56;;;;;;;4.28;1.40;;;;;;;;;;5072743;28;20398;-64
2022/02/23 13:01:25;;;;;;;5.03;1.80;;;;;;;;;;5072776;28;20053;-66
2022/02/23 13:03:54;;;;;;;7.68;2.40;;;;;;;;;;5072497;28;20105;-65
2022/02/23 13:06:26;;;;;;;7.43;1.77;;;;;;;;;;5072540;28;20045;-64
2022/02/23 13:08:54;;;;;;;4.93;1.60;;;;;;;;;;5072403;28;20052;-65
2022/02/23 13:11:28;;;;;;;7.00;2.20;;;;;;;;;;5072765;28;20131;-64
2022/02/23 13:13:55;;;;;;;4.45;1.42;;;;;;;;;;5072347;28;20040;-63
2022/02/23 13:16:27;;;;;;;5.88;1.50;;;;;;;;;;5072927;28;20512;-64
2022/02/23 13:19:02;;;;;;;4.88;2.05;;;;;;;;;;5072124;28;20056;-64
2022/02/23 13:21:43;;;;;;;3.67;1.23;;;;;;;;;;5072790;28;20139;-63
2022/02/23 13:24:11;;;;;;;4.47;1.40;;;;;;;;;;5072921;28;20132;-63
2022/02/23 13:26:39;;;;;;;7.32;1.88;;;;;;;;;;5072572;28;20513;-64
2022/02/23 13:29:09;;;;;;;6.05;1.42;;;;;;;;;;5072276;28;20048;-64
2022/02/23 13:31:48;;;;;;;5.35;1.27;;;;;;;;;;5072455;28;20486;-63
2022/02/23 13:34:18;;;;;;;5.10;1.30;;;;;;;;;;5072247;28;20051;-64
2022/02/23 13:36:48;;;;;;;4.00;1.63;;;;;;;;;;5072062;28;20048;-64
2022/02/23 13:39:19;;;;;;;4.57;1.30;;;;;;;;;;5072129;28;20052;-64
2022/02/23 13:42:13;;;;;;;3.72;1.27;;;;;;;;;;5071903;28;20052;-63
2022/02/23 13:44:42;;;;;;;6.95;2.85;;;;;;;;;;5049303;28;20482;-64
2022/02/23 13:47:11;;;;;;;6.13;1.85;;;;;;;;;;5071721;28;20359;-64
2022/02/23 13:50:01;;;;;;;5.68;1.40;;;;;;;;;;5071963;28;20428;-64
2022/02/23 13:52:32;;;;;;;3.85;1.38;;;;;;;;;;5072032;28;20048;-63
2022/02/23 13:55:06;;;;;;;3.30;1.33;;;;;;;;;;5072092;28;20045;-64
2022/02/23 13:57:38;;;;;;;4.95;1.55;;;;;;;;;;5071240;28;20044;-64
2022/02/23 14:00:08;;;;;;;5.03;1.20;;;;;;;;;;5071327;28;20063;-65
2022/02/23 14:02:35;;;;;;;4.18;1.52;;;;;;;;;;5072144;28;20102;-65
2022/02/23 14:05:09;;;;;;;4.28;1.15;;;;;;;;;;5071691;28;20087;-65
2022/02/23 14:07:37;;;;;;;7.55;1.38;;;;;;;;;;5071488;28;20053;-64
2022/02/23 14:10:07;;;;;;;4.43;1.60;;;;;;;;;;5071789;28;20075;-64
2022/02/23 14:12:35;;;;;;;5.28;1.27;;;;;;;;;;5071763;28;20058;-63
2022/02/23 14:15:04;;;;;;;6.65;2.83;;;;;;;;;;5071055;28;20048;-64
2022/02/23 14:17:31;;;;;;;4.97;1.80;;;;;;;;;;5071046;28;20049;-64
2022/02/23 14:20:15;;;;;;;4.25;1.17;;;;;;;;;;5071487;28;20482;-65
2022/02/23 14:22:46;;;;;;;6.07;3.03;;;;;;;;;;5071712;28;20149;-64
2022/02/23 14:25:13;;;;;;;4.68;1.35;;;;;;;;;;5071560;28;20454;-65
2022/02/23 14:27:43;;;;;;;3.75;1.17;;;;;;;;;;5071022;28;20128;-62
2022/02/23 14:30:19;;;;;;;3.43;1.13;;;;;;;;;;5071302;28;20127;-64
2022/02/23 14:32:46;;;;;;;4.32;1.33;;;;;;;;;;5071330;28;20269;-64
2022/02/23 14:35:19;;;;;;;5.57;1.60;;;;;;;;;;5072479;28;20051;-64
2022/02/23 14:37:49;;;;;;;6.60;2.13;;;;;;;;;;5078301;28;20052;-64
2022/02/23 14:40:18;;;;;;;;;;;;;;;;;;5071496;28;20055;-63
2022/02/23 14:42:46;;;;;;;3.63;1.00;;;;;;;;;;5071478;28;20292;-63
2022/02/23 14:45:14;;;;;;;3.38;1.40;;;;;;;;;;5071147;28;20048;-65
2022/02/23 14:47:44;;;;;;;5.22;1.38;;;;;;;;;;5071244;28;20433;-64
2022/02/23 14:50:13;;;;;;;5.13;1.38;;;;;;;;;;5071108;28;20080;-65
2022/02/23 14:52:43;;;;;;;4.28;1.25;;;;;;;;;;5070890;28;20139;-64
2022/02/23 14:55:13;;;;;;;4.30;1.20;;;;;;;;;;5070950;28;20060;-65
2022/02/23 14:57:40;;;;;;;4.15;1.35;;;;;;;;;;5070796;28;20117;-65